createdAt,value
2022-08-12T00:00:12.000Z,36.39
2022-08-12T00:01:13.000Z,36.40
2022-08-12T00:02:11.000Z,36.21
2022-08-12T00:03:11.000Z,36.46
2022-08-12T00:04:14.000Z,36.44
2022-08-12T00:05:11.000Z,36.62
2022-08-12T00:06:12.000Z,36.47
2022-08-12T00:07:11.000Z,36.08
2022-08-12T00:08:12.000Z,36.00
2022-08-12T00:09:11.000Z,36.03
2022-08-12T00:10:11.000Z,35.76
2022-08-12T00:11:12.000Z,35.87
2022-08-12T00:12:11.000Z,35.78
2022-08-12T00:13:11.000Z,35.61
2022-08-12T00:14:11.000Z,35.53
2022-08-12T00:15:15.000Z,35.70
2022-08-12T00:16:10.000Z,35.49
2022-08-12T00:17:11.000Z,35.72
2022-08-12T00:18:10.000Z,35.60
2022-08-12T00:19:10.000Z,35.45
2022-08-12T00:20:10.000Z,35.66
2022-08-12T00:21:12.000Z,35.57
2022-08-12T00:22:11.000Z,35.51
2022-08-12T00:23:10.000Z,35.49
2022-08-12T00:24:10.000Z,35.42
2022-08-12T00:25:10.000Z,35.39
2022-08-12T00:26:13.000Z,35.56
2022-08-12T00:27:11.000Z,35.45
2022-08-12T00:28:11.000Z,35.61
2022-08-12T00:29:10.000Z,35.50
2022-08-12T00:30:11.000Z,35.40
2022-08-12T00:31:11.000Z,35.46
2022-08-12T00:32:11.000Z,35.47
2022-08-12T00:33:10.000Z,35.40
2022-08-12T00:34:15.000Z,35.36
2022-08-12T00:35:11.000Z,35.39
2022-08-12T00:36:10.000Z,35.37
2022-08-12T00:37:10.000Z,35.43
2022-08-12T00:38:11.000Z,35.36
2022-08-12T00:39:11.000Z,35.45
2022-08-12T00:40:11.000Z,35.43
2022-08-12T00:41:11.000Z,35.58
2022-08-12T00:42:10.000Z,35.50
2022-08-12T00:43:07.000Z,35.49
2022-08-12T00:44:06.000Z,35.52
2022-08-12T00:45:06.000Z,35.63
2022-08-12T00:46:10.000Z,35.47
2022-08-12T00:47:06.000Z,35.52
2022-08-12T00:48:05.000Z,35.60
2022-08-12T00:49:06.000Z,35.59
2022-08-12T00:50:08.000Z,35.55
2022-08-12T00:51:07.000Z,35.56
2022-08-12T00:52:07.000Z,35.66
2022-08-12T00:53:07.000Z,35.58
2022-08-12T00:54:06.000Z,35.65
2022-08-12T00:55:06.000Z,35.55
2022-08-12T00:56:06.000Z,35.76
2022-08-12T00:57:15.000Z,35.75
2022-08-12T00:58:07.000Z,35.85
2022-08-12T00:59:07.000Z,35.88
2022-08-12T01:00:11.000Z,35.86
2022-08-12T01:01:06.000Z,35.95
2022-08-12T01:02:06.000Z,36.03
2022-08-12T01:03:12.000Z,35.83
2022-08-12T01:04:12.000Z,36.00
2022-08-12T01:05:14.000Z,36.07
2022-08-12T01:06:12.000Z,36.08
2022-08-12T01:07:12.000Z,35.99
2022-08-12T01:08:11.000Z,36.14
2022-08-12T01:09:13.000Z,36.12
2022-08-12T01:10:11.000Z,36.04
2022-08-12T01:11:11.000Z,36.17
2022-08-12T01:12:09.000Z,36.23
2022-08-12T01:13:06.000Z,36.25
2022-08-12T01:14:05.000Z,36.20
2022-08-12T01:15:07.000Z,36.16
2022-08-12T01:16:07.000Z,36.22
2022-08-12T01:17:06.000Z,36.23
2022-08-12T01:18:05.000Z,36.14
2022-08-12T01:19:06.000Z,36.28
2022-08-12T01:20:15.000Z,36.29
2022-08-12T01:21:14.000Z,36.30
2022-08-12T01:22:19.000Z,36.36
2022-08-12T01:23:22.000Z,36.39
2022-08-12T01:24:28.000Z,36.31
2022-08-12T01:25:10.000Z,36.52
2022-08-12T01:26:08.000Z,36.54
2022-08-12T01:27:07.000Z,36.59
2022-08-12T01:28:09.000Z,36.58
2022-08-12T01:29:08.000Z,36.50
2022-08-12T01:30:09.000Z,36.51
2022-08-12T01:31:07.000Z,36.56
2022-08-12T01:32:10.000Z,36.59
2022-08-12T01:33:23.000Z,36.71
2022-08-12T01:34:08.000Z,36.70
2022-08-12T01:35:11.000Z,36.61
2022-08-12T01:36:08.000Z,36.72
2022-08-12T01:37:08.000Z,36.70
2022-08-12T01:38:11.000Z,36.76
2022-08-12T01:39:06.000Z,36.75
2022-08-12T01:40:08.000Z,36.66
2022-08-12T01:41:09.000Z,36.70
2022-08-12T01:42:07.000Z,36.84
2022-08-12T01:43:08.000Z,36.80
2022-08-12T01:44:08.000Z,36.80
2022-08-12T01:45:07.000Z,36.77
2022-08-12T01:46:13.000Z,36.76
2022-08-12T01:47:15.000Z,36.80
2022-08-12T01:48:21.000Z,36.69
2022-08-12T01:49:26.000Z,36.89
2022-08-12T01:50:15.000Z,36.86
2022-08-12T01:51:27.000Z,36.94
2022-08-12T01:51:27.000Z,36.94
2022-08-12T01:52:35.000Z,36.95
2022-08-12T01:53:10.000Z,36.95
2022-08-12T01:54:09.000Z,37.12
2022-08-12T01:55:08.000Z,37.04
2022-08-12T01:56:08.000Z,37.11
2022-08-12T01:57:22.000Z,37.13
2022-08-12T01:58:20.000Z,37.11
2022-08-12T01:59:18.000Z,37.15
2022-08-12T02:00:09.000Z,37.14
2022-08-12T02:01:10.000Z,37.34
2022-08-12T02:02:08.000Z,37.32
2022-08-12T02:03:29.000Z,37.40
2022-08-12T02:04:34.000Z,37.42
2022-08-12T02:05:23.000Z,37.45
2022-08-12T02:06:23.000Z,37.51
2022-08-12T02:07:20.000Z,37.52
2022-08-12T02:08:30.000Z,37.45
2022-08-12T02:09:17.000Z,37.47
2022-08-12T02:10:29.000Z,37.33
2022-08-12T02:11:20.000Z,37.42
2022-08-12T02:12:17.000Z,37.67
2022-08-12T02:13:31.000Z,37.56
2022-08-12T02:14:15.000Z,37.58
2022-08-12T02:15:16.000Z,37.57
2022-08-12T02:16:17.000Z,37.64
2022-08-12T02:17:15.000Z,37.63
2022-08-12T02:18:16.000Z,37.64
2022-08-12T02:19:31.000Z,37.77
2022-08-12T02:20:23.000Z,37.67
2022-08-12T02:21:25.000Z,37.88
2022-08-12T02:22:15.000Z,37.91
2022-08-12T02:23:09.000Z,37.83
2022-08-12T02:24:09.000Z,37.93
2022-08-12T02:25:17.000Z,38.10
2022-08-12T02:26:07.000Z,38.07
2022-08-12T02:27:08.000Z,37.99
2022-08-12T02:28:05.000Z,37.90
2022-08-12T02:29:06.000Z,38.00
2022-08-12T02:30:09.000Z,38.03
2022-08-12T02:31:07.000Z,38.01
2022-08-12T02:32:06.000Z,38.19
2022-08-12T02:33:05.000Z,38.23
2022-08-12T02:34:07.000Z,38.26
2022-08-12T02:35:16.000Z,38.10
2022-08-12T02:36:05.000Z,38.29
2022-08-12T02:37:07.000Z,38.25
2022-08-12T02:38:09.000Z,38.22
2022-08-12T02:39:06.000Z,38.32
2022-08-12T02:40:07.000Z,38.05
2022-08-12T02:41:09.000Z,38.19
2022-08-12T02:42:09.000Z,38.19
2022-08-12T02:43:26.000Z,38.51
2022-08-12T02:44:07.000Z,38.53
2022-08-12T02:45:06.000Z,38.81
2022-08-12T02:46:10.000Z,38.70
2022-08-12T02:47:07.000Z,38.63
2022-08-12T02:47:07.000Z,38.63
2022-08-12T02:48:07.000Z,38.57
2022-08-12T02:49:13.000Z,38.65
2022-08-12T02:50:08.000Z,38.61
2022-08-12T02:51:10.000Z,38.66
2022-08-12T02:52:07.000Z,38.47
2022-08-12T02:53:07.000Z,38.63
2022-08-12T02:54:06.000Z,38.57
2022-08-12T02:55:13.000Z,38.70
2022-08-12T02:56:05.000Z,38.83
2022-08-12T02:57:06.000Z,38.81
2022-08-12T02:58:08.000Z,38.81
2022-08-12T02:59:07.000Z,38.86
2022-08-12T03:00:07.000Z,38.76
2022-08-12T03:01:08.000Z,38.77
2022-08-12T03:02:09.000Z,38.99
2022-08-12T03:03:08.000Z,39.04
2022-08-12T03:04:12.000Z,39.17
2022-08-12T03:05:08.000Z,39.13
2022-08-12T03:06:12.000Z,39.19
2022-08-12T03:07:28.000Z,39.11
2022-08-12T03:08:07.000Z,39.18
2022-08-12T03:09:11.000Z,39.38
2022-08-12T03:10:10.000Z,39.39
2022-08-12T03:11:14.000Z,39.32
2022-08-12T03:12:06.000Z,39.22
2022-08-12T03:13:08.000Z,39.41
2022-08-12T03:14:12.000Z,39.21
2022-08-12T03:15:09.000Z,39.45
2022-08-12T03:16:06.000Z,39.46
2022-08-12T03:17:13.000Z,39.45
2022-08-12T03:18:28.000Z,39.58
2022-08-12T03:19:06.000Z,39.44
2022-08-12T03:20:06.000Z,39.58
2022-08-12T03:21:05.000Z,39.73
2022-08-12T03:22:11.000Z,39.64
2022-08-12T03:23:09.000Z,39.60
2022-08-12T03:24:13.000Z,39.60
2022-08-12T03:25:12.000Z,39.65
2022-08-12T03:26:06.000Z,39.63
2022-08-12T03:27:08.000Z,39.67
2022-08-12T03:28:11.000Z,39.78
2022-08-12T03:29:05.000Z,39.82
2022-08-12T03:30:06.000Z,39.68
2022-08-12T03:31:07.000Z,39.76
2022-08-12T03:32:05.000Z,40.09
2022-08-12T03:33:05.000Z,40.04
2022-08-12T03:34:09.000Z,39.91
2022-08-12T03:35:09.000Z,40.34
2022-08-12T03:36:06.000Z,40.17
2022-08-12T03:37:07.000Z,40.31
2022-08-12T03:38:08.000Z,40.30
2022-08-12T03:39:12.000Z,40.41
2022-08-12T03:40:26.000Z,40.76
2022-08-12T03:41:16.000Z,40.65
2022-08-12T03:42:18.000Z,40.63
2022-08-12T03:43:16.000Z,40.66
2022-08-12T03:44:21.000Z,40.55
2022-08-12T03:45:19.000Z,40.40
2022-08-12T03:46:21.000Z,40.78
2022-08-12T03:47:23.000Z,41.16
2022-08-12T03:48:13.000Z,41.18
2022-08-12T03:49:10.000Z,40.85
2022-08-12T03:50:10.000Z,40.71
2022-08-12T03:51:10.000Z,40.85
2022-08-12T03:52:11.000Z,40.81
2022-08-12T03:53:12.000Z,40.69
2022-08-12T03:54:11.000Z,40.76
2022-08-12T03:55:10.000Z,40.86
2022-08-12T03:56:11.000Z,41.02
2022-08-12T03:57:10.000Z,41.05
2022-08-12T03:58:12.000Z,40.89
2022-08-12T03:59:11.000Z,40.84
2022-08-12T04:00:12.000Z,40.88
2022-08-12T04:01:06.000Z,40.60
2022-08-12T04:02:12.000Z,40.33
2022-08-12T04:03:21.000Z,40.72
2022-08-12T04:04:08.000Z,40.32
2022-08-12T04:05:11.000Z,41.35
2022-08-12T04:06:07.000Z,41.25
2022-08-12T04:07:08.000Z,41.12
2022-08-12T04:08:10.000Z,41.50
2022-08-12T04:09:05.000Z,41.35
2022-08-12T04:10:06.000Z,41.35
2022-08-12T04:11:10.000Z,41.54
2022-08-12T04:12:11.000Z,41.55
2022-08-12T04:13:11.000Z,41.09
2022-08-12T04:14:07.000Z,41.08
2022-08-12T04:15:07.000Z,41.02
2022-08-12T04:16:10.000Z,41.01
2022-08-12T04:17:07.000Z,40.73
2022-08-12T04:18:05.000Z,41.34
2022-08-12T04:19:06.000Z,41.33
2022-08-12T04:20:10.000Z,41.19
2022-08-12T04:21:08.000Z,41.17
2022-08-12T04:22:06.000Z,41.37
2022-08-12T04:23:10.000Z,41.39
2022-08-12T04:24:07.000Z,40.74
2022-08-12T04:25:08.000Z,41.02
2022-08-12T04:26:06.000Z,41.46
2022-08-12T04:27:09.000Z,41.65
2022-08-12T04:28:08.000Z,41.32
2022-08-12T04:29:07.000Z,41.39
2022-08-12T04:30:10.000Z,41.35
2022-08-12T04:31:06.000Z,41.29
2022-08-12T04:32:06.000Z,41.24
2022-08-12T04:33:08.000Z,41.29
2022-08-12T04:34:10.000Z,41.03
2022-08-12T04:35:07.000Z,41.69
2022-08-12T04:36:06.000Z,41.70
2022-08-12T04:37:06.000Z,41.78
2022-08-12T04:38:06.000Z,41.58
2022-08-12T04:39:07.000Z,41.73
2022-08-12T04:40:10.000Z,41.58
2022-08-12T04:41:06.000Z,41.72
2022-08-12T04:42:06.000Z,41.29
2022-08-12T04:43:06.000Z,41.46
2022-08-12T04:43:06.000Z,41.46
2022-08-12T04:44:07.000Z,42.07
2022-08-12T04:45:07.000Z,41.93
2022-08-12T04:46:06.000Z,42.12
2022-08-12T04:47:10.000Z,42.16
2022-08-12T04:48:06.000Z,42.39
2022-08-12T04:49:06.000Z,42.97
2022-08-12T04:50:07.000Z,42.64
2022-08-12T04:51:06.000Z,42.46
2022-08-12T04:52:06.000Z,42.42
2022-08-12T04:53:07.000Z,42.40
2022-08-12T04:54:05.000Z,43.22
2022-08-12T04:55:07.000Z,44.05
2022-08-12T04:56:06.000Z,43.28
2022-08-12T04:57:08.000Z,42.74
2022-08-12T04:58:06.000Z,42.46
2022-08-12T04:59:06.000Z,42.92
2022-08-12T05:00:10.000Z,43.66
2022-08-12T05:01:06.000Z,42.80
2022-08-12T05:02:05.000Z,42.71
2022-08-12T05:03:06.000Z,42.30
2022-08-12T05:04:07.000Z,42.41
2022-08-12T05:05:17.000Z,42.83
2022-08-12T05:06:06.000Z,42.55
2022-08-12T05:07:06.000Z,43.06
2022-08-12T05:08:12.000Z,42.19
2022-08-12T05:09:05.000Z,42.41
2022-08-12T05:10:06.000Z,42.41
2022-08-12T05:11:05.000Z,42.35
2022-08-12T05:12:06.000Z,42.75
2022-08-12T05:13:09.000Z,42.54
2022-08-12T05:14:06.000Z,42.20
2022-08-12T05:15:06.000Z,42.10
2022-08-12T05:16:06.000Z,42.57
2022-08-12T05:17:08.000Z,42.77
2022-08-12T05:18:05.000Z,43.54
2022-08-12T05:19:06.000Z,43.78
2022-08-12T05:20:21.000Z,42.89
2022-08-12T05:21:07.000Z,42.66
2022-08-12T05:22:05.000Z,43.30
2022-08-12T05:23:15.000Z,42.69
2022-08-12T05:24:05.000Z,42.62
2022-08-12T05:25:06.000Z,42.80
2022-08-12T05:26:05.000Z,42.41
2022-08-12T05:27:05.000Z,43.04
2022-08-12T05:28:05.000Z,42.73
2022-08-12T05:29:11.000Z,42.49
2022-08-12T05:29:11.000Z,42.49
2022-08-12T05:30:10.000Z,42.83
2022-08-12T05:31:05.000Z,42.57
2022-08-12T05:32:06.000Z,42.86
2022-08-12T05:33:05.000Z,42.58
2022-08-12T05:34:05.000Z,43.05
2022-08-12T05:35:07.000Z,42.49
2022-08-12T05:36:11.000Z,43.34
2022-08-12T05:37:05.000Z,42.49
2022-08-12T05:38:12.000Z,43.14
2022-08-12T05:39:05.000Z,42.63
2022-08-12T05:40:06.000Z,42.66
2022-08-12T05:41:17.000Z,42.55
2022-08-12T05:42:07.000Z,42.63
2022-08-12T05:43:06.000Z,43.10
2022-08-12T05:44:07.000Z,43.17
2022-08-12T05:45:06.000Z,42.85
2022-08-12T05:46:05.000Z,42.68
2022-08-12T05:47:05.000Z,43.01
2022-08-12T05:48:05.000Z,43.14
2022-08-12T05:49:05.000Z,43.01
2022-08-12T05:50:05.000Z,43.08
2022-08-12T05:51:06.000Z,43.21
2022-08-12T05:52:06.000Z,42.92
2022-08-12T05:53:06.000Z,43.13
2022-08-12T05:54:05.000Z,43.18
2022-08-12T05:55:06.000Z,42.98
2022-08-12T05:56:16.000Z,42.77
2022-08-12T05:57:05.000Z,42.74
2022-08-12T05:58:07.000Z,43.00
2022-08-12T05:59:08.000Z,42.89
2022-08-12T06:00:06.000Z,42.95
2022-08-12T06:01:05.000Z,42.88
2022-08-12T06:01:05.000Z,42.88
2022-08-12T06:02:13.000Z,42.92
2022-08-12T06:03:06.000Z,42.80
2022-08-12T06:04:07.000Z,42.79
2022-08-12T06:05:06.000Z,42.62
2022-08-12T06:06:06.000Z,42.67
2022-08-12T06:07:07.000Z,42.75
2022-08-12T06:07:07.000Z,42.75
2022-08-12T06:08:07.000Z,42.61
2022-08-12T06:09:09.000Z,42.91
2022-08-12T06:10:06.000Z,42.74
2022-08-12T06:11:05.000Z,42.66
2022-08-12T06:12:06.000Z,42.63
2022-08-12T06:13:06.000Z,42.72
2022-08-12T06:14:06.000Z,42.55
2022-08-12T06:15:06.000Z,42.47
2022-08-12T06:16:07.000Z,42.21
2022-08-12T06:17:07.000Z,42.29
2022-08-12T06:18:11.000Z,42.24
2022-08-12T06:19:07.000Z,42.38
2022-08-12T06:20:06.000Z,42.18
2022-08-12T06:21:07.000Z,42.15
2022-08-12T06:22:06.000Z,42.38
2022-08-12T06:23:06.000Z,42.11
2022-08-12T06:24:07.000Z,42.11
2022-08-12T06:25:05.000Z,42.21
2022-08-12T06:26:11.000Z,42.20
2022-08-12T06:27:05.000Z,42.02
2022-08-12T06:28:12.000Z,42.19
2022-08-12T06:29:05.000Z,42.09
2022-08-12T06:30:08.000Z,41.92
2022-08-12T06:31:05.000Z,41.90
2022-08-12T06:32:06.000Z,41.84
2022-08-12T06:33:06.000Z,42.00
2022-08-12T06:34:06.000Z,41.94
2022-08-12T06:34:06.000Z,41.94
2022-08-12T06:34:06.000Z,41.94
2022-08-12T06:35:35.000Z,41.90
2022-08-12T06:36:05.000Z,41.89
2022-08-12T06:37:05.000Z,42.03
2022-08-12T06:38:16.000Z,41.91
2022-08-12T06:39:05.000Z,41.90
2022-08-12T06:40:09.000Z,41.85
2022-08-12T06:41:10.000Z,41.88
2022-08-12T06:42:10.000Z,41.81
2022-08-12T06:43:05.000Z,41.61
2022-08-12T06:44:07.000Z,41.53
2022-08-12T06:45:05.000Z,41.59
2022-08-12T06:46:05.000Z,41.90
2022-08-12T06:47:05.000Z,41.88
2022-08-12T06:48:06.000Z,42.02
2022-08-12T06:49:05.000Z,41.87
2022-08-12T06:50:06.000Z,41.80
2022-08-12T06:51:07.000Z,41.85
2022-08-12T06:52:05.000Z,41.81
2022-08-12T06:53:07.000Z,41.88
2022-08-12T06:54:05.000Z,41.96
2022-08-12T06:55:06.000Z,41.82
2022-08-12T06:56:05.000Z,41.97
2022-08-12T06:57:06.000Z,41.85
2022-08-12T06:57:06.000Z,41.85
2022-08-12T06:58:08.000Z,41.45
2022-08-12T06:59:06.000Z,41.42
2022-08-12T07:00:08.000Z,41.58
2022-08-12T07:01:06.000Z,41.50
2022-08-12T07:02:07.000Z,41.54
2022-08-12T07:03:05.000Z,41.46
2022-08-12T07:04:05.000Z,41.63
2022-08-12T07:05:06.000Z,41.72
2022-08-12T07:06:07.000Z,41.64
2022-08-12T07:07:07.000Z,41.45
2022-08-12T07:08:06.000Z,41.67
2022-08-12T07:09:06.000Z,41.54
2022-08-12T07:10:06.000Z,41.72
2022-08-12T07:11:08.000Z,41.46
2022-08-12T07:12:18.000Z,41.32
2022-08-12T07:13:08.000Z,40.86
2022-08-12T07:14:05.000Z,41.08
2022-08-12T07:15:06.000Z,40.83
2022-08-12T07:16:06.000Z,40.94
2022-08-12T07:17:06.000Z,40.69
2022-08-12T07:18:11.000Z,40.99
2022-08-12T07:19:05.000Z,40.99
2022-08-12T07:20:09.000Z,40.81
2022-08-12T07:21:08.000Z,40.85
2022-08-12T07:22:06.000Z,40.71
2022-08-12T07:23:06.000Z,40.73
2022-08-12T07:24:05.000Z,40.57
2022-08-12T07:25:10.000Z,40.44
2022-08-12T07:26:07.000Z,40.39
2022-08-12T07:27:05.000Z,40.52
2022-08-12T07:28:09.000Z,40.41
2022-08-12T07:29:10.000Z,40.41
2022-08-12T07:30:08.000Z,40.45
2022-08-12T07:31:09.000Z,40.38
2022-08-12T07:32:06.000Z,40.25
2022-08-12T07:33:09.000Z,40.30
2022-08-12T07:34:06.000Z,39.87
2022-08-12T07:35:06.000Z,39.68
2022-08-12T07:36:11.000Z,39.78
2022-08-12T07:37:05.000Z,39.54
2022-08-12T07:38:35.000Z,39.64
2022-08-12T07:39:06.000Z,39.89
2022-08-12T07:40:06.000Z,39.52
2022-08-12T07:41:12.000Z,39.65
2022-08-12T07:42:05.000Z,39.58
2022-08-12T07:43:05.000Z,39.53
2022-08-12T07:44:07.000Z,39.28
2022-08-12T07:45:07.000Z,39.12
2022-08-12T07:46:09.000Z,39.03
2022-08-12T07:47:06.000Z,39.10
2022-08-12T07:48:05.000Z,39.07
2022-08-12T07:49:11.000Z,39.19
2022-08-12T07:50:11.000Z,39.22
2022-08-12T07:51:06.000Z,39.23
2022-08-12T07:52:05.000Z,38.91
2022-08-12T07:53:06.000Z,39.03
2022-08-12T07:54:09.000Z,38.77
2022-08-12T07:55:07.000Z,38.72
2022-08-12T07:56:07.000Z,38.90
2022-08-12T07:57:10.000Z,38.94
2022-08-12T07:58:06.000Z,38.95
2022-08-12T07:59:08.000Z,38.92
2022-08-12T08:00:06.000Z,38.59
2022-08-12T08:01:14.000Z,38.57
2022-08-12T08:02:08.000Z,38.47
2022-08-12T08:03:07.000Z,38.61
2022-08-12T08:04:11.000Z,38.72
2022-08-12T08:05:06.000Z,38.57
2022-08-12T08:06:14.000Z,38.55
2022-08-12T08:07:08.000Z,38.58
2022-08-12T08:08:12.000Z,38.45
2022-08-12T08:09:06.000Z,38.84
2022-08-12T08:10:08.000Z,38.59
2022-08-12T08:11:11.000Z,38.59
2022-08-12T08:12:11.000Z,38.81
2022-08-12T08:13:07.000Z,38.91
2022-08-12T08:14:08.000Z,39.10
2022-08-12T08:15:06.000Z,39.15
2022-08-12T08:16:07.000Z,39.46
2022-08-12T08:17:06.000Z,39.23
2022-08-12T08:18:09.000Z,38.68
2022-08-12T08:19:09.000Z,38.58
2022-08-12T08:20:07.000Z,38.35
2022-08-12T08:21:07.000Z,38.02
2022-08-12T08:22:06.000Z,38.09
2022-08-12T08:23:10.000Z,38.31
2022-08-12T08:24:11.000Z,38.32
2022-08-12T08:25:06.000Z,38.24
2022-08-12T08:26:06.000Z,38.34
2022-08-12T08:27:07.000Z,38.25
2022-08-12T08:28:12.000Z,37.84
2022-08-12T08:29:07.000Z,37.93
2022-08-12T08:30:06.000Z,38.47
2022-08-12T08:31:05.000Z,37.87
2022-08-12T08:32:06.000Z,38.15
2022-08-12T08:33:09.000Z,37.80
2022-08-12T08:33:09.000Z,37.80
2022-08-12T08:34:11.000Z,37.82
2022-08-12T08:35:07.000Z,38.00
2022-08-12T08:36:07.000Z,37.97
2022-08-12T08:37:06.000Z,38.05
2022-08-12T08:38:14.000Z,37.69
2022-08-12T08:39:11.000Z,37.82
2022-08-12T08:40:11.000Z,37.66
2022-08-12T08:41:10.000Z,37.87
2022-08-12T08:42:10.000Z,37.46
2022-08-12T08:43:05.000Z,37.70
2022-08-12T08:44:06.000Z,37.25
2022-08-12T08:45:11.000Z,37.06
2022-08-12T08:46:05.000Z,36.58
2022-08-12T08:47:07.000Z,36.35
2022-08-12T08:48:05.000Z,36.37
2022-08-12T08:49:05.000Z,36.48
2022-08-12T08:50:08.000Z,36.52
2022-08-12T08:51:05.000Z,36.58
2022-08-12T08:52:09.000Z,36.82
2022-08-12T08:53:07.000Z,36.98
2022-08-12T08:54:05.000Z,36.43
2022-08-12T08:55:07.000Z,36.35
2022-08-12T08:56:10.000Z,36.31
2022-08-12T08:57:06.000Z,36.05
2022-08-12T08:58:08.000Z,35.82
2022-08-12T08:59:05.000Z,35.82
2022-08-12T09:00:06.000Z,35.87
2022-08-12T09:01:05.000Z,36.01
2022-08-12T09:02:05.000Z,35.99
2022-08-12T09:03:05.000Z,36.10
2022-08-12T09:03:05.000Z,36.10
2022-08-12T09:04:35.000Z,35.97
2022-08-12T09:05:16.000Z,36.08
2022-08-12T09:06:05.000Z,36.21
2022-08-12T09:07:05.000Z,35.91
2022-08-12T09:08:06.000Z,36.02
2022-08-12T09:09:10.000Z,35.95
2022-08-12T09:10:06.000Z,35.76
2022-08-12T09:11:10.000Z,34.47
2022-08-12T09:11:10.000Z,34.47
2022-08-12T09:12:17.000Z,34.49
2022-08-12T09:13:10.000Z,34.84
2022-08-12T09:14:08.000Z,34.79
2022-08-12T09:15:06.000Z,34.66
2022-08-12T09:16:06.000Z,34.15
2022-08-12T09:17:05.000Z,34.46
2022-08-12T09:18:07.000Z,34.61
2022-08-12T09:19:06.000Z,33.81
2022-08-12T09:20:07.000Z,33.66
2022-08-12T09:21:05.000Z,33.71
2022-08-12T09:22:07.000Z,33.76
2022-08-12T09:23:08.000Z,33.80
2022-08-12T09:23:08.000Z,33.80
2022-08-12T09:23:08.000Z,33.80
2022-08-12T09:24:35.000Z,33.71
2022-08-12T09:25:06.000Z,33.95
2022-08-12T09:26:06.000Z,33.25
2022-08-12T09:27:06.000Z,33.18
2022-08-12T09:28:07.000Z,33.12
2022-08-12T09:29:05.000Z,32.64
2022-08-12T09:30:06.000Z,33.07
2022-08-12T09:31:05.000Z,32.79
2022-08-12T09:31:05.000Z,32.79
2022-08-12T09:32:09.000Z,33.01
2022-08-12T09:32:09.000Z,33.01
2022-08-12T09:33:15.000Z,32.72
2022-08-12T09:34:07.000Z,32.83
2022-08-12T09:35:05.000Z,32.09
2022-08-12T09:36:05.000Z,32.52
2022-08-12T09:37:05.000Z,32.05
2022-08-12T09:38:05.000Z,32.00
2022-08-12T09:39:06.000Z,32.26
2022-08-12T09:39:06.000Z,32.26
2022-08-12T09:40:17.000Z,31.82
2022-08-12T09:40:17.000Z,31.82
2022-08-12T09:40:17.000Z,31.82
2022-08-12T09:40:17.000Z,31.82
2022-08-12T09:41:39.000Z,31.22
2022-08-12T09:41:39.000Z,31.22
2022-08-12T09:42:40.000Z,31.67
2022-08-12T09:43:13.000Z,31.53
2022-08-12T09:44:10.000Z,31.82
2022-08-12T09:45:10.000Z,31.53
2022-08-12T09:46:06.000Z,31.78
2022-08-12T09:47:05.000Z,31.95
2022-08-12T09:48:05.000Z,31.82
2022-08-12T09:49:07.000Z,31.46
2022-08-12T09:50:05.000Z,32.04
2022-08-12T09:51:09.000Z,31.94
2022-08-12T09:52:05.000Z,31.86
2022-08-12T09:53:11.000Z,31.95
2022-08-12T09:54:05.000Z,31.87
2022-08-12T09:55:06.000Z,31.96
2022-08-12T09:55:06.000Z,31.96
2022-08-12T09:55:06.000Z,31.96
2022-08-12T09:56:35.000Z,32.45
2022-08-12T09:57:08.000Z,32.57
2022-08-12T09:57:08.000Z,32.57
2022-08-12T09:57:08.000Z,32.57
2022-08-12T09:58:35.000Z,32.59
2022-08-12T09:59:08.000Z,32.40
2022-08-12T10:00:08.000Z,32.39
2022-08-12T10:01:05.000Z,32.52
2022-08-12T10:02:05.000Z,32.33
2022-08-12T10:03:06.000Z,32.06
2022-08-12T10:04:08.000Z,32.15
2022-08-12T10:05:06.000Z,32.41
2022-08-12T10:06:05.000Z,32.45
2022-08-12T10:07:05.000Z,32.38
2022-08-12T10:08:10.000Z,31.76
2022-08-12T10:09:06.000Z,31.88
2022-08-12T10:10:06.000Z,32.01
2022-08-12T10:11:10.000Z,31.69
2022-08-12T10:12:10.000Z,31.51
2022-08-12T10:13:17.000Z,31.83
2022-08-12T10:14:04.000Z,31.76
2022-08-12T10:15:05.000Z,31.27
2022-08-12T10:16:17.000Z,31.25
2022-08-12T10:17:04.000Z,31.33
2022-08-12T10:18:04.000Z,31.33
2022-08-12T10:19:04.000Z,31.13
2022-08-12T10:20:05.000Z,30.82
2022-08-12T10:21:07.000Z,30.86
2022-08-12T10:22:05.000Z,30.78
2022-08-12T10:23:06.000Z,30.81
2022-08-12T10:24:15.000Z,31.05
2022-08-12T10:25:10.000Z,31.10
2022-08-12T10:26:12.000Z,31.09
2022-08-12T10:27:10.000Z,30.61
2022-08-12T10:28:10.000Z,30.19
2022-08-12T10:29:10.000Z,29.88
2022-08-12T10:29:10.000Z,29.88
2022-08-12T10:30:35.000Z,30.13
2022-08-12T10:31:06.000Z,29.92
2022-08-12T10:32:10.000Z,29.92
2022-08-12T10:33:05.000Z,29.74
2022-08-12T10:34:06.000Z,29.92
2022-08-12T10:35:07.000Z,29.52
2022-08-12T10:36:05.000Z,30.03
2022-08-12T10:37:06.000Z,29.91
2022-08-12T10:37:06.000Z,29.91
2022-08-12T10:37:06.000Z,29.91
2022-08-12T10:38:35.000Z,29.36
2022-08-12T10:39:07.000Z,29.31
2022-08-12T10:39:07.000Z,29.31
2022-08-12T10:40:06.000Z,29.46
2022-08-12T10:41:10.000Z,29.62
2022-08-12T10:42:12.000Z,29.49
2022-08-12T10:43:10.000Z,29.50
2022-08-12T10:44:08.000Z,29.32
2022-08-12T10:45:07.000Z,29.79
2022-08-12T10:46:11.000Z,29.85
2022-08-12T10:47:05.000Z,29.50
2022-08-12T10:47:05.000Z,29.50
2022-08-12T10:48:21.000Z,29.28
2022-08-12T10:49:05.000Z,28.90
2022-08-12T10:49:05.000Z,28.90
2022-08-12T10:50:26.000Z,29.42
2022-08-12T10:51:05.000Z,29.05
2022-08-12T10:51:05.000Z,29.05
2022-08-12T10:52:37.000Z,29.05
2022-08-12T10:53:08.000Z,29.11
2022-08-12T10:54:06.000Z,29.00
2022-08-12T10:55:06.000Z,28.83
2022-08-12T10:56:06.000Z,29.14
2022-08-12T10:57:06.000Z,29.47
2022-08-12T10:58:06.000Z,29.81
2022-08-12T10:59:05.000Z,29.67
2022-08-12T11:00:07.000Z,29.72
2022-08-12T11:01:07.000Z,29.45
2022-08-12T11:01:07.000Z,29.45
2022-08-12T11:01:07.000Z,29.45
2022-08-12T11:01:07.000Z,29.45
2022-08-12T11:01:07.000Z,29.45
2022-08-12T11:02:36.000Z,29.40
2022-08-12T11:02:36.000Z,29.40
2022-08-12T11:02:36.000Z,29.40
2022-08-12T11:03:36.000Z,29.77
2022-08-12T11:04:37.000Z,29.28
2022-08-12T11:05:10.000Z,29.27
2022-08-12T11:05:10.000Z,29.27
2022-08-12T11:05:10.000Z,29.27
2022-08-12T11:05:10.000Z,29.27
2022-08-12T11:05:10.000Z,29.27
2022-08-12T11:06:43.000Z,29.65
2022-08-12T11:06:43.000Z,29.65
2022-08-12T11:06:43.000Z,29.65
2022-08-12T11:07:36.000Z,29.28
2022-08-12T11:08:37.000Z,28.70
2022-08-12T11:09:05.000Z,28.88
2022-08-12T11:10:05.000Z,28.43
2022-08-12T11:11:07.000Z,28.94
2022-08-12T11:12:05.000Z,28.50
2022-08-12T11:12:05.000Z,28.50
2022-08-12T11:13:05.000Z,28.09
2022-08-12T11:14:05.000Z,28.49
2022-08-12T11:15:07.000Z,27.95
2022-08-12T11:16:05.000Z,28.23
2022-08-12T11:17:08.000Z,28.76
2022-08-12T11:18:20.000Z,27.72
2022-08-12T11:19:05.000Z,27.52
2022-08-12T11:20:06.000Z,27.22
2022-08-12T11:21:05.000Z,27.59
2022-08-12T11:22:06.000Z,27.47
2022-08-12T11:23:05.000Z,27.18
2022-08-12T11:24:05.000Z,26.65
2022-08-12T11:25:08.000Z,27.09
2022-08-12T11:26:05.000Z,27.04
2022-08-12T11:27:06.000Z,27.49
2022-08-12T11:28:05.000Z,27.40
2022-08-12T11:29:05.000Z,27.18
2022-08-12T11:30:06.000Z,27.37
2022-08-12T11:31:07.000Z,26.88
2022-08-12T11:32:05.000Z,26.89
2022-08-12T11:33:05.000Z,27.09
2022-08-12T11:34:05.000Z,27.44
2022-08-12T11:34:05.000Z,27.44
2022-08-12T11:35:05.000Z,27.03
2022-08-12T11:36:06.000Z,26.86
2022-08-12T11:37:05.000Z,26.51
2022-08-12T11:38:05.000Z,26.25
2022-08-12T11:39:05.000Z,26.57
2022-08-12T11:40:05.000Z,26.38
2022-08-12T11:41:05.000Z,26.24
2022-08-12T11:42:05.000Z,26.57
2022-08-12T11:43:05.000Z,26.18
2022-08-12T11:44:05.000Z,25.96
2022-08-12T11:45:05.000Z,26.00
2022-08-12T11:46:05.000Z,26.12
2022-08-12T11:47:05.000Z,26.45
2022-08-12T11:48:05.000Z,26.21
2022-08-12T11:49:06.000Z,26.41
2022-08-12T11:50:05.000Z,26.28
2022-08-12T11:51:05.000Z,26.41
2022-08-12T11:52:05.000Z,26.63
2022-08-12T11:52:05.000Z,26.63
2022-08-12T11:53:04.000Z,26.81
2022-08-12T11:53:04.000Z,26.81
2022-08-12T11:54:05.000Z,26.88
2022-08-12T11:55:05.000Z,26.82
2022-08-12T11:56:05.000Z,26.93
2022-08-12T11:57:05.000Z,27.38
2022-08-12T11:57:05.000Z,27.38
2022-08-12T11:57:05.000Z,27.38
2022-08-12T11:57:05.000Z,27.38
2022-08-12T11:57:05.000Z,27.38
2022-08-12T11:58:35.000Z,27.26
2022-08-12T11:58:35.000Z,27.26
2022-08-12T11:58:35.000Z,27.26